createdAt,value
2019-01-18T00:00:44.878Z,99.90
2019-01-18T00:03:12.297Z,99.90
2019-01-18T00:05:40.157Z,99.90
2019-01-18T00:08:07.789Z,99.90
2019-01-18T00:10:35.478Z,99.90
2019-01-18T00:13:03.000Z,99.90
2019-01-18T00:15:30.357Z,99.90
2019-01-18T00:17:57.870Z,99.90
2019-01-18T00:20:25.274Z,99.90
2019-01-18T00:22:53.229Z,99.90
2019-01-18T00:25:20.707Z,99.90
2019-01-18T00:27:48.090Z,99.90
2019-01-18T00:30:15.701Z,99.90
2019-01-18T00:32:43.124Z,99.90
2019-01-18T00:35:10.530Z,99.90
2019-01-18T00:37:37.930Z,99.90
2019-01-18T00:40:06.006Z,99.90
2019-01-18T00:42:33.381Z,99.90
2019-01-18T00:45:00.677Z,99.90
2019-01-18T00:47:28.114Z,99.90
2019-01-18T00:49:55.511Z,99.90
2019-01-18T00:52:22.920Z,99.90
2019-01-18T00:54:50.466Z,99.90
2019-01-18T00:57:17.851Z,99.90
2019-01-18T00:59:45.253Z,99.90
2019-01-18T01:02:12.689Z,99.90
2019-01-18T01:04:40.397Z,99.90
2019-01-18T01:07:08.070Z,99.90
2019-01-18T01:09:35.514Z,99.90
2019-01-18T01:12:04.007Z,99.90
2019-01-18T01:14:31.490Z,99.90
2019-01-18T01:16:58.946Z,99.90
2019-01-18T01:19:26.238Z,99.90
2019-01-18T01:21:53.637Z,99.90
2019-01-18T01:24:21.237Z,99.90
2019-01-18T01:26:48.625Z,99.90
2019-01-18T01:29:16.005Z,99.90
2019-01-18T01:31:43.447Z,99.90
2019-01-18T01:34:10.831Z,99.90
2019-01-18T01:36:38.225Z,99.90
2019-01-18T01:39:08.589Z,99.90
2019-01-18T01:41:35.987Z,99.90
2019-01-18T01:44:03.521Z,99.90
2019-01-18T01:46:31.146Z,99.90
2019-01-18T01:48:58.533Z,99.90
2019-01-18T01:51:25.920Z,99.90
2019-01-18T01:53:53.341Z,99.90
2019-01-18T01:56:20.732Z,99.90
2019-01-18T01:58:48.131Z,99.90
2019-01-18T02:01:15.566Z,99.90
2019-01-18T02:03:42.957Z,99.90
2019-01-18T02:06:10.341Z,99.90
2019-01-18T02:08:37.959Z,99.90
2019-01-18T02:11:05.542Z,99.90
2019-01-18T02:13:32.925Z,99.90
2019-01-18T02:16:00.397Z,99.90
2019-01-18T02:18:27.802Z,99.90
2019-01-18T02:20:55.181Z,99.90
2019-01-18T02:23:22.658Z,99.90
2019-01-18T02:25:50.050Z,99.90
2019-01-18T02:28:17.435Z,99.90
2019-01-18T02:30:44.869Z,99.90
2019-01-18T02:33:12.271Z,99.90
2019-01-18T02:35:39.661Z,99.90
2019-01-18T02:38:07.209Z,99.90
2019-01-18T02:40:34.602Z,99.90
2019-01-18T02:43:01.995Z,99.90
2019-01-18T02:45:29.485Z,99.90
2019-01-18T02:47:56.883Z,99.90
2019-01-18T02:50:24.282Z,99.90
2019-01-18T02:52:51.686Z,99.90
2019-01-18T02:55:19.097Z,99.90
2019-01-18T02:57:46.489Z,99.90
2019-01-18T03:00:22.105Z,99.90
2019-01-18T03:02:49.503Z,99.90
2019-01-18T03:05:19.556Z,99.90
2019-01-18T03:07:47.089Z,99.90
2019-01-18T03:10:27.161Z,99.90
2019-01-18T03:12:54.557Z,99.90
2019-01-18T03:15:21.988Z,99.90
2019-01-18T03:17:49.447Z,99.90
2019-01-18T03:20:17.726Z,99.90
2019-01-18T03:22:45.167Z,99.90
2019-01-18T03:25:15.686Z,99.90
2019-01-18T03:27:43.079Z,99.90
2019-01-18T03:30:18.532Z,99.90
2019-01-18T03:32:42.238Z,99.90
2019-01-18T03:35:11.602Z,99.90
2019-01-18T03:37:38.991Z,99.90
2019-01-18T03:40:08.566Z,99.90
2019-01-18T03:42:35.961Z,99.90
2019-01-18T03:45:05.131Z,99.90
2019-01-18T03:47:32.556Z,99.90
2019-01-18T03:49:59.938Z,99.90
2019-01-18T03:52:27.331Z,99.90
2019-01-18T03:54:54.775Z,99.90
2019-01-18T03:57:22.173Z,99.90
2019-01-18T03:59:49.572Z,99.90
2019-01-18T04:02:17.011Z,99.90
2019-01-18T04:04:44.413Z,99.90
2019-01-18T04:07:11.791Z,99.90
2019-01-18T04:09:39.469Z,99.90
2019-01-18T04:12:08.052Z,99.90
2019-01-18T04:14:35.442Z,99.90
2019-01-18T04:17:02.879Z,99.90
2019-01-18T04:19:30.262Z,99.90
2019-01-18T04:21:57.670Z,99.90
2019-01-18T04:24:25.131Z,99.90
2019-01-18T04:26:52.543Z,99.90
2019-01-18T04:29:19.934Z,99.90
2019-01-18T04:31:47.527Z,99.90
2019-01-18T04:34:14.927Z,99.90
2019-01-18T04:36:42.317Z,99.90
2019-01-18T04:39:09.908Z,99.90
2019-01-18T04:41:37.306Z,99.90
2019-01-18T04:44:04.703Z,99.90
2019-01-18T04:46:32.154Z,99.90
2019-01-18T04:48:59.553Z,99.90
2019-01-18T04:51:26.949Z,99.90
2019-01-18T04:53:54.679Z,99.90
2019-01-18T04:56:22.096Z,99.90
2019-01-18T04:58:49.484Z,99.90
2019-01-18T05:01:16.831Z,99.90
2019-01-18T05:03:44.221Z,99.90
2019-01-18T05:06:11.629Z,99.90
2019-01-18T05:08:39.075Z,99.90
2019-01-18T05:11:06.731Z,99.90
2019-01-18T05:13:34.536Z,99.90
2019-01-18T05:16:03.998Z,99.90
2019-01-18T05:18:31.442Z,99.90
2019-01-18T05:20:58.853Z,99.90
2019-01-18T05:23:26.280Z,99.90
2019-01-18T05:25:53.678Z,99.90
2019-01-18T05:28:21.072Z,99.90
2019-01-18T05:30:48.515Z,99.90
2019-01-18T05:33:15.919Z,99.90
2019-01-18T05:35:43.322Z,99.90
2019-01-18T05:38:11.050Z,99.90
2019-01-18T05:40:38.451Z,99.90
2019-01-18T05:43:05.859Z,99.90
2019-01-18T05:45:33.307Z,99.90
2019-01-18T05:48:00.716Z,99.90
2019-01-18T05:50:29.409Z,99.90
2019-01-18T05:52:57.568Z,99.90
2019-01-18T05:55:24.968Z,99.90
2019-01-18T05:57:52.378Z,99.90
2019-01-18T06:00:55.271Z,99.90
2019-01-18T06:03:22.970Z,99.90
2019-01-18T06:05:50.460Z,99.90
2019-01-18T06:08:17.907Z,99.90
2019-01-18T06:10:45.745Z,99.90
2019-01-18T06:13:13.613Z,99.90
2019-01-18T06:15:41.060Z,99.90
2019-01-18T06:18:08.568Z,99.90
2019-01-18T06:20:35.949Z,99.90
2019-01-18T06:23:03.546Z,99.90
2019-01-18T06:25:30.946Z,99.90
2019-01-18T06:27:58.362Z,99.90
2019-01-18T06:30:45.263Z,99.90
2019-01-18T06:33:13.063Z,99.90
2019-01-18T06:35:40.986Z,99.90
2019-01-18T06:38:08.601Z,99.90
2019-01-18T06:40:36.001Z,99.90
2019-01-18T06:43:03.725Z,99.90
2019-01-18T06:45:31.813Z,99.90
2019-01-18T06:47:59.201Z,99.90
2019-01-18T06:50:26.634Z,99.90
2019-01-18T06:52:54.034Z,99.90
2019-01-18T06:55:21.431Z,99.90
2019-01-18T06:57:48.895Z,99.90
2019-01-18T07:00:35.808Z,99.90
2019-01-18T07:03:04.791Z,99.90
2019-01-18T07:05:32.213Z,99.90
2019-01-18T07:07:59.626Z,99.90
2019-01-18T07:10:27.083Z,98.60
2019-01-18T07:12:54.478Z,99.90
2019-01-18T07:15:23.158Z,99.90
2019-01-18T07:17:50.527Z,93.80
2019-01-18T07:20:18.304Z,92.80
2019-01-18T07:22:45.907Z,90.30
2019-01-18T07:25:15.622Z,90.80
2019-01-18T07:27:43.023Z,89.50
2019-01-18T07:30:19.967Z,90.90
2019-01-18T07:32:47.362Z,83.40
2019-01-18T07:35:16.081Z,88.70
2019-01-18T07:37:43.475Z,88.00
2019-01-18T07:40:11.176Z,85.40
2019-01-18T07:42:38.824Z,83.50
2019-01-18T07:45:10.196Z,84.90
2019-01-18T07:47:37.637Z,78.40
2019-01-18T07:50:05.666Z,80.20
2019-01-18T07:52:33.075Z,81.30
2019-01-18T07:55:00.474Z,75.00
2019-01-18T07:57:28.108Z,78.80
2019-01-18T07:59:55.502Z,72.90
2019-01-18T08:02:22.896Z,74.00
2019-01-18T08:04:50.461Z,70.30
2019-01-18T08:07:17.877Z,71.60
2019-01-18T08:09:45.291Z,70.90
2019-01-18T08:12:12.784Z,69.90
2019-01-18T08:14:40.176Z,69.10
2019-01-18T08:17:07.595Z,70.10
2019-01-18T08:19:35.173Z,70.70
2019-01-18T08:22:02.572Z,69.90
2019-01-18T08:24:31.557Z,72.30
2019-01-18T08:26:58.954Z,70.40
2019-01-18T08:29:26.349Z,70.50
2019-01-18T08:31:53.906Z,71.70
2019-01-18T08:34:21.997Z,69.90
2019-01-18T08:36:49.390Z,68.80
2019-01-18T08:39:17.214Z,69.60
2019-01-18T08:41:44.619Z,69.10
2019-01-18T08:44:12.023Z,68.90
2019-01-18T08:46:39.476Z,69.70
2019-01-18T08:49:06.884Z,69.60
2019-01-18T08:51:34.284Z,69.50
2019-01-18T08:54:01.887Z,70.70
2019-01-18T08:56:29.287Z,69.80
2019-01-18T08:58:56.687Z,70.80
2019-01-18T09:01:24.132Z,72.40
2019-01-18T09:03:51.518Z,69.80
2019-01-18T09:06:18.906Z,69.20
2019-01-18T09:08:46.325Z,65.80
2019-01-18T09:11:13.718Z,69.70
2019-01-18T09:13:41.127Z,68.50
2019-01-18T09:16:08.847Z,68.20
2019-01-18T09:18:36.230Z,66.70
2019-01-18T09:21:03.650Z,68.20
2019-01-18T09:23:31.226Z,70.10
2019-01-18T09:25:58.646Z,68.00
2019-01-18T09:28:26.035Z,65.30
2019-01-18T09:30:53.925Z,64.70
2019-01-18T09:33:21.318Z,65.50
2019-01-18T09:35:49.067Z,65.60
2019-01-18T09:38:17.859Z,65.70
2019-01-18T09:40:45.548Z,68.00
2019-01-18T09:43:12.932Z,66.10
2019-01-18T09:45:40.370Z,66.40
2019-01-18T09:48:09.149Z,66.20
2019-01-18T09:50:36.540Z,65.30
2019-01-18T09:53:05.207Z,65.20
2019-01-18T09:55:34.033Z,64.30
2019-01-18T09:58:01.509Z,62.70
2019-01-18T10:00:31.288Z,63.50
2019-01-18T10:02:59.437Z,64.80
2019-01-18T10:05:26.879Z,63.00
2019-01-18T10:07:54.308Z,62.90
2019-01-18T10:10:21.938Z,63.50
2019-01-18T10:12:49.442Z,61.90
2019-01-18T10:15:22.676Z,60.90
2019-01-18T10:17:50.069Z,62.10
2019-01-18T10:20:17.747Z,63.30
2019-01-18T10:22:46.007Z,64.40
2019-01-18T10:25:14.073Z,62.00
2019-01-18T10:27:41.571Z,62.40
2019-01-18T10:30:13.034Z,60.60
2019-01-18T10:32:40.423Z,60.40
2019-01-18T10:35:08.432Z,60.30
2019-01-18T10:37:35.839Z,62.40
2019-01-18T10:40:04.195Z,60.60
2019-01-18T10:42:31.596Z,60.30
2019-01-18T10:44:59.051Z,61.20
2019-01-18T10:47:26.449Z,61.10
2019-01-18T10:49:53.834Z,60.50
2019-01-18T10:52:21.875Z,59.60
2019-01-18T10:54:49.272Z,59.10
2019-01-18T10:57:16.682Z,58.10
2019-01-18T10:59:44.287Z,58.10
2019-01-18T11:02:11.655Z,57.00
2019-01-18T11:04:39.258Z,56.70
2019-01-18T11:07:06.699Z,58.50
2019-01-18T11:09:34.090Z,57.70
2019-01-18T11:12:01.500Z,58.10
2019-01-18T11:14:29.235Z,57.90
2019-01-18T11:16:56.633Z,60.70
2019-01-18T11:19:24.022Z,59.00
2019-01-18T11:21:51.510Z,57.70
2019-01-18T11:24:18.906Z,57.90
2019-01-18T11:26:46.303Z,58.80
2019-01-18T11:29:13.748Z,59.10
2019-01-18T11:31:41.143Z,58.20
2019-01-18T11:34:08.528Z,59.10
2019-01-18T11:36:36.204Z,59.20
2019-01-18T11:39:05.611Z,59.10
2019-01-18T11:41:33.040Z,57.40
2019-01-18T11:44:00.626Z,58.30
2019-01-18T11:46:28.027Z,56.50
2019-01-18T11:48:55.424Z,57.00
2019-01-18T11:51:22.852Z,55.60
2019-01-18T11:53:50.255Z,58.70
2019-01-18T11:56:17.654Z,58.10
2019-01-18T11:58:45.110Z,57.90
2019-01-18T12:01:12.540Z,57.40
2019-01-18T12:03:39.923Z,56.00
2019-01-18T12:06:07.364Z,54.20
2019-01-18T12:08:34.743Z,56.60
2019-01-18T12:11:02.141Z,59.10
2019-01-18T12:13:29.775Z,57.90
2019-01-18T12:15:57.175Z,57.40
2019-01-18T12:18:24.567Z,54.50
2019-01-18T12:20:52.044Z,54.60
2019-01-18T12:23:19.426Z,55.20
2019-01-18T12:25:46.819Z,52.90
2019-01-18T12:28:14.436Z,52.80
2019-01-18T12:30:41.930Z,51.20
2019-01-18T12:33:09.319Z,50.60
2019-01-18T12:35:36.925Z,48.70
2019-01-18T12:38:04.641Z,49.20
2019-01-18T12:40:32.031Z,49.00
2019-01-18T12:42:59.505Z,48.30
2019-01-18T12:45:26.907Z,48.80
2019-01-18T12:47:54.303Z,48.50
2019-01-18T12:50:30.013Z,47.70
2019-01-18T12:52:57.504Z,49.30
2019-01-18T12:55:24.798Z,49.90
2019-01-18T12:57:52.384Z,50.90
2019-01-18T13:00:20.879Z,48.00
2019-01-18T13:02:48.270Z,50.70
2019-01-18T13:05:18.708Z,51.10
2019-01-18T13:07:46.433Z,52.30
2019-01-18T13:10:13.834Z,53.30
2019-01-18T13:12:41.444Z,50.30
2019-01-18T13:15:15.485Z,51.40
2019-01-18T13:17:42.877Z,51.50
2019-01-18T13:20:10.797Z,54.10
2019-01-18T13:22:38.212Z,55.90
2019-01-18T13:25:08.807Z,54.80
2019-01-18T13:27:36.317Z,55.70
2019-01-18T13:30:06.903Z,54.00
2019-01-18T13:32:34.303Z,53.60
2019-01-18T13:35:02.126Z,53.30
2019-01-18T13:37:29.704Z,52.70
2019-01-18T13:39:57.292Z,49.00
2019-01-18T13:42:24.759Z,50.90
2019-01-18T13:44:52.147Z,48.50
2019-01-18T13:47:20.074Z,48.20
2019-01-18T13:49:47.620Z,49.90
2019-01-18T13:52:15.011Z,49.80
2019-01-18T13:54:42.398Z,54.90
2019-01-18T13:57:12.243Z,58.30
2019-01-18T13:59:39.191Z,58.10
2019-01-18T14:02:06.587Z,59.40
2019-01-18T14:04:34.339Z,59.50
2019-01-18T14:07:01.733Z,59.90
2019-01-18T14:09:29.136Z,61.00
2019-01-18T14:11:56.593Z,59.40
2019-01-18T14:14:24.203Z,61.20
2019-01-18T14:16:51.599Z,61.30
2019-01-18T14:19:19.186Z,62.90
2019-01-18T14:21:46.590Z,61.90
2019-01-18T14:24:13.988Z,64.20
2019-01-18T14:26:41.708Z,63.20
2019-01-18T14:29:09.115Z,62.80
2019-01-18T14:31:36.511Z,64.90
2019-01-18T14:34:04.292Z,65.50
2019-01-18T14:36:31.763Z,65.40
2019-01-18T14:38:59.661Z,65.60
2019-01-18T14:41:30.972Z,68.20
2019-01-18T14:43:56.498Z,67.90
2019-01-18T14:46:23.892Z,66.90
2019-01-18T14:48:51.458Z,66.70
2019-01-18T14:51:18.855Z,67.40
2019-01-18T14:53:46.276Z,67.80
2019-01-18T14:56:13.899Z,66.40
2019-01-18T14:58:41.302Z,67.80
2019-01-18T15:01:08.707Z,70.90
2019-01-18T15:03:36.289Z,69.80
2019-01-18T15:06:03.692Z,68.50
2019-01-18T15:08:31.092Z,71.60
2019-01-18T15:10:58.503Z,72.30
2019-01-18T15:13:25.903Z,72.60
2019-01-18T15:15:53.315Z,72.00
2019-01-18T15:18:22.130Z,70.90
2019-01-18T15:20:49.532Z,69.90
2019-01-18T15:23:16.955Z,71.10
2019-01-18T15:25:46.516Z,70.00
2019-01-18T15:28:13.965Z,73.20
2019-01-18T15:30:41.364Z,70.30
2019-01-18T15:33:09.587Z,72.40
2019-01-18T15:35:37.925Z,72.70
2019-01-18T15:38:10.588Z,72.60
2019-01-18T15:40:42.469Z,72.50
2019-01-18T15:43:11.429Z,73.20
2019-01-18T15:45:38.903Z,72.70
2019-01-18T15:48:06.310Z,74.80
2019-01-18T15:50:35.598Z,75.30
2019-01-18T15:53:03.232Z,72.20
2019-01-18T15:55:30.631Z,74.00
2019-01-18T15:57:58.138Z,75.00
2019-01-18T16:00:37.251Z,74.80
2019-01-18T16:03:05.199Z,74.20
2019-01-18T16:05:32.591Z,75.40
2019-01-18T16:08:00.051Z,76.00
2019-01-18T16:10:27.454Z,77.40
2019-01-18T16:12:55.653Z,78.30
2019-01-18T16:15:28.780Z,79.90
2019-01-18T16:17:56.208Z,77.70
2019-01-18T16:20:23.784Z,77.60
2019-01-18T16:22:52.031Z,79.50
2019-01-18T16:25:24.942Z,78.50
2019-01-18T16:27:52.445Z,80.10
2019-01-18T16:30:20.606Z,81.20
2019-01-18T16:32:47.995Z,81.80
2019-01-18T16:35:16.521Z,78.60
2019-01-18T16:37:46.834Z,76.40
2019-01-18T16:40:20.557Z,79.00
2019-01-18T16:42:51.362Z,81.00
2019-01-18T16:45:18.748Z,80.60
2019-01-18T16:47:46.139Z,80.60
2019-01-18T16:50:13.731Z,80.00
2019-01-18T16:52:41.385Z,78.50
2019-01-18T16:55:09.827Z,80.00
2019-01-18T16:57:37.550Z,79.10
2019-01-18T17:00:13.138Z,79.30
2019-01-18T17:02:40.694Z,79.40
2019-01-18T17:05:08.092Z,80.80
2019-01-18T17:07:35.483Z,82.30
2019-01-18T17:10:03.675Z,82.60
2019-01-18T17:12:31.079Z,80.00
2019-01-18T17:14:58.468Z,81.60
2019-01-18T17:17:26.159Z,82.10
2019-01-18T17:19:53.566Z,83.30
2019-01-18T17:22:20.984Z,83.10
2019-01-18T17:24:48.771Z,82.20
2019-01-18T17:27:16.176Z,79.90
2019-01-18T17:29:43.559Z,86.00
2019-01-18T17:32:11.035Z,81.30
2019-01-18T17:34:38.436Z,82.30
2019-01-18T17:37:10.589Z,83.60
2019-01-18T17:40:03.894Z,83.60
2019-01-18T17:43:01.611Z,82.90
2019-01-18T17:46:14.062Z,85.20
2019-01-18T17:49:19.229Z,85.50
2019-01-18T17:52:17.639Z,87.80
2019-01-18T17:54:52.417Z,88.30
2019-01-18T17:57:48.619Z,87.70
2019-01-18T18:00:55.044Z,89.20
2019-01-18T18:04:01.287Z,89.00
2019-01-18T18:07:10.156Z,89.40
2019-01-18T18:10:04.751Z,88.70
2019-01-18T18:12:48.455Z,87.70
2019-01-18T18:15:45.756Z,87.90
2019-01-18T18:19:00.604Z,90.40
2019-01-18T18:22:06.719Z,86.80
2019-01-18T18:25:04.002Z,94.70
2019-01-18T18:28:01.860Z,93.60
2019-01-18T18:30:44.484Z,92.20
2019-01-18T18:33:56.413Z,90.20
2019-01-18T18:36:59.137Z,93.00
2019-01-18T18:40:08.023Z,92.60
2019-01-18T18:43:00.789Z,91.00
2019-01-18T18:45:51.660Z,88.30
2019-01-18T18:48:52.866Z,88.40
2019-01-18T18:51:57.286Z,93.00
2019-01-18T18:55:04.577Z,93.80
2019-01-18T18:58:21.759Z,90.90
2019-01-18T19:01:37.139Z,94.90
2019-01-18T19:04:53.021Z,93.50
2019-01-18T19:08:00.985Z,93.90
2019-01-18T19:11:10.395Z,93.00
2019-01-18T19:14:08.791Z,91.20
2019-01-18T19:17:14.239Z,93.40
2019-01-18T19:20:10.427Z,93.10
2019-01-18T19:23:08.028Z,94.50
2019-01-18T19:26:19.453Z,94.60
2019-01-18T19:29:43.443Z,93.80
2019-01-18T19:33:10.582Z,91.90
2019-01-18T19:36:07.622Z,90.80
2019-01-18T19:39:10.499Z,90.90
2019-01-18T19:42:24.972Z,92.20
2019-01-18T19:45:21.971Z,93.60
2019-01-18T19:48:27.996Z,93.60
2019-01-18T19:51:38.323Z,90.70
2019-01-18T19:54:49.479Z,92.90
2019-01-18T19:57:52.806Z,91.10
2019-01-18T20:00:49.961Z,93.30
2019-01-18T20:03:47.524Z,90.70
2019-01-18T20:06:52.639Z,93.20
2019-01-18T20:09:52.209Z,93.50
2019-01-18T20:13:13.595Z,94.00
2019-01-18T20:16:11.363Z,93.10
2019-01-18T20:19:27.408Z,93.20
2019-01-18T20:22:33.651Z,92.70
2019-01-18T20:25:49.616Z,91.60
2019-01-18T20:28:33.780Z,92.90
2019-01-18T20:31:44.317Z,92.90
2019-01-18T20:34:37.911Z,90.90
2019-01-18T20:37:44.388Z,90.90
2019-01-18T20:41:10.155Z,90.30
2019-01-18T20:44:20.605Z,91.50
2019-01-18T20:47:11.564Z,92.10
2019-01-18T20:50:30.192Z,91.90
2019-01-18T20:53:20.805Z,92.80
2019-01-18T20:56:32.975Z,92.00
2019-01-18T20:59:35.197Z,90.00
2019-01-18T21:02:56.383Z,89.30
2019-01-18T21:05:49.232Z,91.70
2019-01-18T21:08:54.276Z,92.70
2019-01-18T21:12:11.836Z,92.80
2019-01-18T21:15:17.026Z,90.10
2019-01-18T21:18:04.324Z,90.20
2019-01-18T21:20:53.315Z,89.60
2019-01-18T21:23:47.077Z,90.00
2019-01-18T21:26:44.482Z,90.40
2019-01-18T21:29:49.805Z,90.80
2019-01-18T21:32:45.944Z,90.10
2019-01-18T21:35:42.314Z,90.60
2019-01-18T21:39:01.175Z,90.90
2019-01-18T21:41:51.972Z,91.60
2019-01-18T21:44:57.169Z,91.30
2019-01-18T21:47:51.454Z,90.70
2019-01-18T21:50:54.103Z,89.30
2019-01-18T21:53:40.011Z,91.00
2019-01-18T21:56:43.297Z,91.10
2019-01-18T21:59:31.347Z,91.40
2019-01-18T22:02:40.566Z,88.60
2019-01-18T22:05:38.309Z,88.60
2019-01-18T22:08:24.655Z,89.80
2019-01-18T22:11:23.249Z,86.80
2019-01-18T22:14:40.595Z,90.50
2019-01-18T22:17:55.859Z,90.90
2019-01-18T22:20:54.911Z,90.40
2019-01-18T22:24:01.333Z,88.90
2019-01-18T22:27:07.819Z,88.80
2019-01-18T22:29:55.507Z,90.80
2019-01-18T22:32:54.883Z,90.90
2019-01-18T22:36:08.936Z,88.30
2019-01-18T22:39:39.517Z,87.20
2019-01-18T22:42:44.849Z,88.70
2019-01-18T22:45:37.859Z,89.30
2019-01-18T22:48:37.187Z,89.40
2019-01-18T22:51:31.694Z,89.70
2019-01-18T22:54:50.149Z,90.00
2019-01-18T22:57:59.582Z,90.50
2019-01-18T23:01:10.623Z,88.80
2019-01-18T23:04:03.437Z,89.30
2019-01-18T23:06:56.555Z,89.00
2019-01-18T23:10:00.827Z,88.70
2019-01-18T23:13:09.146Z,91.10
2019-01-18T23:16:06.062Z,90.30
2019-01-18T23:19:08.129Z,90.00
2019-01-18T23:22:23.766Z,89.50
2019-01-18T23:25:22.261Z,89.70
2019-01-18T23:28:12.215Z,89.20
2019-01-18T23:31:04.077Z,90.00
2019-01-18T23:34:09.304Z,89.50
2019-01-18T23:36:58.988Z,88.20
2019-01-18T23:40:11.419Z,89.20
2019-01-18T23:43:13.177Z,90.80
2019-01-18T23:46:23.809Z,89.40
2019-01-18T23:49:21.195Z,88.30
2019-01-18T23:52:26.326Z,90.20
2019-01-18T23:55:35.804Z,90.70
2019-01-18T23:58:51.350Z,90.40
